Meteo Giornale » Osservazioni meteo Svizzera » Locarno

ore: 19:50 - Osservazioni Meteo Locarno
Lat. 46° 10' N Lon. 8° 53' E Alt. 600 metri s.l.m.

sereno Europe/Zurich

23 °C

Sereno

Temp. 24 Ore

10 °C

26 °C

Nord

3.7 Km/h

Dew point 11 °C

Umidità 46 %

Visibilità  10 Km

Il sole sorge alle ore 06:19

Il sole tramonta alle ore 20:25

Data e Ora Cielo e Fenomeni T °C DP °C Um. % Pres. hPa Vis. km Vento km/h
Oggi h: 19:50 sereno Sereno 23 11 46 1015 10 N 3.7
Oggi h: 17:50 sereno Sereno 25 12 44 1015 10 O 7.4
Oggi h: 16:50 sereno Sereno 26 13 44 1015 10 N 5.5
Oggi h: 15:50 poco_nuvoloso Poco Nuvoloso 25 13 47 1015 10 O/SO 9.3
Oggi h: 14:50 poco_nuvoloso Poco Nuvoloso 25 12 44 1016 10 O/SO 7.4
Oggi h: 13:50 poco_nuvoloso Poco Nuvoloso 23 12 49 1017 10 O 9.3
Oggi h: 12:50 sereno Sereno 21 10 49 1017 10 O 14.8
Oggi h: 11:50 poco_nuvoloso Poco Nuvoloso 21 10 49 1017 10 O/SO 11.1
Oggi h: 10:50 sereno Sereno 22 9 43 1018 10 E/NE 7.4
Oggi h: 09:50 sereno Sereno 20 8 45 1018 10 E 9.3
Oggi h: 08:50 sereno Sereno 18 10 59 1018 10 N 5.5
Oggi h: 07:50 sereno Sereno 14 9 71 1017 10 N 0
Oggi h: 06:50 sereno Sereno 10 8 87 1017 10 N 1.8
Oggi h: 05:50 sereno Sereno 10 8 87 1016 10 N 3.7
Oggi h: 04:50 sereno Sereno 12 10 87 1016 10 N 0
Oggi h: 03:50 sereno Sereno 14 10 76 1016 10 N 0
Oggi h: 02:50 poco_nuvoloso Poco Nuvoloso 13 10 81 1016 10 N 5.5
Oggi h: 01:50 sereno Sereno 13 11 87 1016 10 N 3.7
Oggi h: 00:50 sereno Sereno 14 11 82 1016 10 N 3.7
Ieri h: 23:50 sereno Sereno 15 11 76 1016 10 N 0
Ieri h: 22:50 nuvoloso Nuvoloso 16 12 77 1016 10 N 0
Ieri h: 21:50 molto_nuvoloso Molto Nuvoloso 16 12 77 1016 10 N 3.7
Ieri h: 20:50 molto_nuvoloso Molto Nuvoloso 18 12 67 1015 10 N 3.7